Woodbury, Indiana
Current Conditions -  °F | °C
As of 8:15 PM on Sunday 21 Dec 2014 (Local Time) from KMQJ Reporting Station
Clear Clear  
Wind Chill: 26°   Ceiling: Unl
Heat Index: 32°   Visibility: 7mi
Dew Point: 23°   Wind: 6mph
Humidity: 69%   Direction: 120°ESE
Pressure: 30.13"   Gusts: NA
Location:  39.9249°N, 85.9217°W
Report Text: KMQJ 220115Z AUTO 12005KT 7SM CLR M00/M05 A3013 RMK AO1
Loading
Personal Weather Stations






























Interactive Weather Map New forecast layout! Learn more

10-Day Weather Forecast

Advertisements
Track Severe Weather on mobile